createdAt,value
2019-03-09T00:00:17.650Z,13.53
2019-03-09T00:02:46.048Z,13.50
2019-03-09T00:05:14.477Z,12.93
2019-03-09T00:07:42.877Z,14.37
2019-03-09T00:10:11.319Z,14.63
2019-03-09T00:12:39.701Z,13.17
2019-03-09T00:15:08.697Z,15.23
2019-03-09T00:17:37.266Z,14.17
2019-03-09T00:20:07.740Z,14.80
2019-03-09T00:22:36.208Z,14.47
2019-03-09T00:25:07.032Z,14.03
2019-03-09T00:27:37.067Z,13.47
2019-03-09T00:30:15.390Z,14.30
2019-03-09T00:32:43.785Z,12.83
2019-03-09T00:35:12.180Z,14.17
2019-03-09T00:37:40.715Z,11.23
2019-03-09T00:40:11.164Z,13.03
2019-03-09T00:42:39.583Z,13.53
2019-03-09T00:45:08.588Z,11.07
2019-03-09T00:47:37.052Z,11.80
2019-03-09T00:50:08.187Z,11.20
2019-03-09T00:52:36.622Z,11.70
2019-03-09T00:55:08.137Z,14.50
2019-03-09T00:57:36.515Z,12.27
2019-03-09T01:00:07.802Z,13.73
2019-03-09T01:02:36.197Z,10.60
2019-03-09T01:05:05.622Z,10.37
2019-03-09T01:07:34.087Z,10.97
2019-03-09T01:10:02.515Z,9.57
2019-03-09T01:12:30.972Z,10.00
2019-03-09T01:14:59.372Z,9.97
2019-03-09T01:17:27.761Z,10.30
2019-03-09T01:19:56.178Z,10.60
2019-03-09T01:22:24.548Z,11.73
2019-03-09T01:24:52.926Z,9.73
2019-03-09T01:27:21.354Z,10.37
2019-03-09T01:29:49.814Z,9.03
2019-03-09T01:32:18.201Z,10.10
2019-03-09T01:34:46.610Z,10.90
2019-03-09T01:37:14.999Z,9.33
2019-03-09T01:39:43.387Z,10.27
2019-03-09T01:42:11.784Z,10.47
2019-03-09T01:44:40.170Z,9.07
2019-03-09T01:47:08.554Z,9.90
2019-03-09T01:49:36.974Z,9.93
2019-03-09T01:52:05.365Z,10.23
2019-03-09T01:54:33.927Z,8.67
2019-03-09T01:57:02.315Z,9.60
2019-03-09T01:59:30.768Z,8.83
2019-03-09T02:01:59.233Z,9.43
2019-03-09T02:04:27.620Z,8.07
2019-03-09T02:06:56.047Z,7.57
2019-03-09T02:09:24.606Z,8.67
2019-03-09T02:11:53.030Z,8.80
2019-03-09T02:14:21.418Z,8.77
2019-03-09T02:16:49.911Z,7.93
2019-03-09T02:19:18.365Z,8.10
2019-03-09T02:21:46.783Z,9.27
2019-03-09T02:24:15.169Z,8.97
2019-03-09T02:26:43.582Z,8.60
2019-03-09T02:29:11.973Z,8.40
2019-03-09T02:31:40.466Z,8.33
2019-03-09T02:34:08.928Z,7.90
2019-03-09T02:36:37.341Z,8.80
2019-03-09T02:39:07.921Z,9.57
2019-03-09T02:41:36.346Z,8.27
2019-03-09T02:44:04.746Z,8.37
2019-03-09T02:46:33.160Z,8.57
2019-03-09T02:49:01.602Z,9.17
2019-03-09T02:51:30.059Z,8.60
2019-03-09T02:53:58.498Z,8.60
2019-03-09T02:56:27.045Z,7.77
2019-03-09T02:58:55.471Z,9.70
2019-03-09T03:01:31.374Z,7.53
2019-03-09T03:03:59.765Z,7.30
2019-03-09T03:06:28.162Z,7.67
2019-03-09T03:08:56.638Z,8.37
2019-03-09T03:11:25.040Z,7.50
2019-03-09T03:13:53.419Z,7.23
2019-03-09T03:16:21.802Z,6.90
2019-03-09T03:18:50.227Z,6.70
2019-03-09T03:21:18.609Z,9.10
2019-03-09T03:23:47.035Z,7.37
2019-03-09T03:26:15.427Z,7.23
2019-03-09T03:28:43.852Z,7.90
2019-03-09T03:31:12.237Z,7.00
2019-03-09T03:33:40.705Z,6.77
2019-03-09T03:36:09.338Z,6.87
2019-03-09T03:38:37.795Z,6.20
2019-03-09T03:41:06.165Z,8.30
2019-03-09T03:43:34.620Z,7.63
2019-03-09T03:46:03.009Z,7.03
2019-03-09T03:48:31.475Z,6.53
2019-03-09T03:50:59.861Z,6.30
2019-03-09T03:53:28.259Z,7.80
2019-03-09T03:55:56.641Z,6.03
2019-03-09T03:58:25.035Z,7.07
2019-03-09T04:00:53.427Z,6.47
2019-03-09T04:03:21.816Z,7.13
2019-03-09T04:05:50.203Z,6.33
2019-03-09T04:08:18.591Z,7.50
2019-03-09T04:10:46.987Z,10.13
2019-03-09T04:13:15.384Z,10.73
2019-03-09T04:15:43.844Z,5.83
2019-03-09T04:18:12.224Z,8.37
2019-03-09T04:20:40.661Z,7.03
2019-03-09T04:23:09.048Z,6.50
2019-03-09T04:25:37.446Z,5.70
2019-03-09T04:28:05.837Z,7.93
2019-03-09T04:30:34.226Z,5.50
2019-03-09T04:33:02.630Z,6.07
2019-03-09T04:35:31.023Z,7.63
2019-03-09T04:37:59.409Z,6.13
2019-03-09T04:40:27.800Z,6.97
2019-03-09T04:42:56.213Z,6.90
2019-03-09T04:45:24.647Z,7.13
2019-03-09T04:47:53.077Z,6.50
2019-03-09T04:50:21.461Z,6.10
2019-03-09T04:52:49.905Z,7.10
2019-03-09T04:55:18.292Z,5.80
2019-03-09T04:57:46.743Z,5.40
2019-03-09T05:00:15.940Z,5.97
2019-03-09T05:02:44.353Z,7.00
2019-03-09T05:05:12.982Z,5.83
2019-03-09T05:07:52.904Z,5.27
2019-03-09T05:10:52.078Z,7.97
2019-03-09T05:13:26.801Z,6.07
2019-03-09T05:15:55.194Z,6.50
2019-03-09T05:18:24.094Z,5.93
2019-03-09T05:20:52.544Z,6.00
2019-03-09T05:23:21.004Z,5.63
2019-03-09T05:25:49.389Z,6.87
2019-03-09T05:28:17.962Z,5.00
2019-03-09T05:30:47.115Z,6.43
2019-03-09T05:33:15.521Z,6.40
2019-03-09T05:35:43.903Z,5.27
2019-03-09T05:38:12.333Z,6.70
2019-03-09T05:40:40.718Z,5.57
2019-03-09T05:43:09.151Z,5.17
2019-03-09T05:45:37.541Z,6.37
2019-03-09T05:48:05.955Z,6.00
2019-03-09T05:50:34.352Z,5.50
2019-03-09T05:53:11.254Z,5.57
2019-03-09T05:55:39.642Z,5.70
2019-03-09T05:58:08.072Z,6.97
2019-03-09T06:00:37.653Z,5.17
2019-03-09T06:03:06.071Z,5.60
2019-03-09T06:05:37.067Z,6.33
2019-03-09T06:08:06.135Z,5.63
2019-03-09T06:10:34.567Z,5.47
2019-03-09T06:13:02.934Z,4.63
2019-03-09T06:15:31.334Z,6.10
2019-03-09T06:17:59.707Z,5.80
2019-03-09T06:20:28.099Z,6.73
2019-03-09T06:22:56.542Z,5.13
2019-03-09T06:25:24.934Z,5.90
2019-03-09T06:27:53.329Z,5.50
2019-03-09T06:30:21.722Z,6.00
2019-03-09T06:33:18.771Z,10.00
2019-03-09T06:35:53.278Z,6.97
2019-03-09T06:38:30.737Z,5.10
2019-03-09T06:41:02.852Z,6.17
2019-03-09T06:43:29.247Z,5.17
2019-03-09T06:45:57.638Z,5.10
2019-03-09T06:48:26.036Z,5.53
2019-03-09T06:50:54.430Z,5.97
2019-03-09T06:53:22.854Z,4.80
2019-03-09T06:55:51.218Z,6.00
2019-03-09T06:58:19.603Z,4.70
2019-03-09T07:00:48.142Z,6.60
2019-03-09T07:03:16.577Z,5.23
2019-03-09T07:05:45.100Z,5.13
2019-03-09T07:08:13.558Z,5.60
2019-03-09T07:10:41.992Z,5.90
2019-03-09T07:13:10.378Z,9.53
2019-03-09T07:15:40.546Z,7.43
2019-03-09T07:18:14.813Z,5.70
2019-03-09T07:20:43.229Z,8.47
2019-03-09T07:23:11.613Z,5.60
2019-03-09T07:25:40.034Z,5.83
2019-03-09T07:28:10.184Z,6.20
2019-03-09T07:30:38.609Z,4.93
2019-03-09T07:33:06.999Z,6.83
2019-03-09T07:35:35.483Z,6.90
2019-03-09T07:38:03.874Z,5.40
2019-03-09T07:40:32.269Z,6.20
2019-03-09T07:43:00.676Z,5.93
2019-03-09T07:45:29.077Z,5.17
2019-03-09T07:47:57.467Z,6.07
2019-03-09T07:50:25.857Z,5.10
2019-03-09T07:52:54.245Z,4.80
2019-03-09T07:55:23.109Z,4.80
2019-03-09T07:57:51.498Z,4.93
2019-03-09T08:00:20.947Z,6.60
2019-03-09T08:02:49.465Z,5.00
2019-03-09T08:05:17.859Z,5.23
2019-03-09T08:07:46.255Z,6.67
2019-03-09T08:10:19.435Z,4.77
2019-03-09T08:12:47.831Z,5.70
2019-03-09T08:15:20.466Z,4.60
2019-03-09T08:17:48.860Z,4.67
2019-03-09T08:20:18.493Z,5.07
2019-03-09T08:22:46.882Z,4.93
2019-03-09T08:25:22.822Z,4.30
2019-03-09T08:27:51.292Z,4.80
2019-03-09T08:30:26.912Z,4.33
2019-03-09T08:32:55.372Z,4.67
2019-03-09T08:35:23.779Z,4.13
2019-03-09T08:37:52.405Z,4.57
2019-03-09T08:40:21.897Z,3.93
2019-03-09T08:42:50.377Z,6.67
2019-03-09T08:45:22.577Z,16.53
2019-03-09T08:47:52.526Z,7.70
2019-03-09T08:50:22.494Z,4.83
2019-03-09T08:52:50.935Z,4.87
2019-03-09T08:55:20.987Z,4.33
2019-03-09T08:57:49.381Z,6.00
2019-03-09T09:00:26.562Z,4.27
2019-03-09T09:02:54.907Z,6.97
2019-03-09T09:05:23.410Z,4.43
2019-03-09T09:07:51.878Z,4.40
2019-03-09T09:10:20.327Z,6.33
2019-03-09T09:12:48.867Z,4.47
2019-03-09T09:15:18.298Z,5.60
2019-03-09T09:17:46.712Z,4.33
2019-03-09T09:20:27.854Z,4.30
2019-03-09T09:22:56.255Z,5.50
2019-03-09T09:25:24.703Z,3.90
2019-03-09T09:27:54.034Z,4.10
2019-03-09T09:30:28.157Z,4.50
2019-03-09T09:32:56.631Z,5.10
2019-03-09T09:35:25.013Z,3.40
2019-03-09T09:37:53.572Z,4.10
2019-03-09T09:40:26.192Z,3.70
2019-03-09T09:42:54.474Z,3.33
2019-03-09T09:45:23.133Z,5.63
2019-03-09T09:47:51.533Z,3.30
2019-03-09T09:50:19.986Z,2.43
2019-03-09T09:52:48.375Z,3.50
2019-03-09T09:55:18.959Z,4.43
2019-03-09T09:57:47.474Z,3.07
2019-03-09T10:00:17.802Z,3.03
2019-03-09T10:02:46.202Z,2.47
2019-03-09T10:05:14.591Z,2.93
2019-03-09T10:07:42.988Z,4.23
2019-03-09T10:10:16.017Z,3.07
2019-03-09T10:12:44.417Z,2.20
2019-03-09T10:15:24.447Z,5.17
2019-03-09T10:17:52.820Z,5.97
2019-03-09T10:20:21.212Z,5.80
2019-03-09T10:22:49.652Z,3.90
2019-03-09T10:25:18.041Z,3.77
2019-03-09T10:27:46.436Z,4.87
2019-03-09T10:30:20.572Z,18.90
2019-03-09T10:32:49.037Z,39.37
2019-03-09T10:35:17.449Z,56.63
2019-03-09T10:37:46.067Z,55.20
2019-03-09T10:40:15.609Z,59.13
2019-03-09T10:42:44.117Z,55.40
2019-03-09T10:45:23.019Z,49.53
2019-03-09T10:47:51.727Z,49.70
2019-03-09T10:50:20.589Z,45.97
2019-03-09T10:52:48.990Z,43.33
2019-03-09T10:55:28.082Z,44.67
2019-03-09T10:57:56.476Z,38.53
2019-03-09T11:00:36.786Z,44.00
2019-03-09T11:03:05.245Z,35.60
2019-03-09T11:05:33.692Z,40.57
2019-03-09T11:08:02.107Z,44.73
2019-03-09T11:10:30.508Z,32.00
2019-03-09T11:12:59.168Z,33.87
2019-03-09T11:15:27.572Z,24.37
2019-03-09T11:17:55.990Z,33.17
2019-03-09T11:20:24.392Z,33.70
2019-03-09T11:22:52.797Z,31.10
2019-03-09T11:25:21.185Z,18.43
2019-03-09T11:27:49.578Z,27.70
2019-03-09T11:30:20.419Z,28.03
2019-03-09T11:32:48.819Z,28.90
2019-03-09T11:35:17.214Z,20.03
2019-03-09T11:37:45.718Z,22.53
2019-03-09T11:40:14.247Z,22.83
2019-03-09T11:42:42.638Z,18.57
2019-03-09T11:45:16.226Z,21.97
2019-03-09T11:47:44.629Z,19.13
2019-03-09T11:50:15.163Z,17.70
2019-03-09T11:52:43.570Z,21.77
2019-03-09T11:55:14.350Z,21.00
2019-03-09T11:57:42.782Z,23.50
2019-03-09T12:00:15.762Z,17.67
2019-03-09T12:02:44.159Z,15.97
2019-03-09T12:05:12.575Z,19.67
2019-03-09T12:07:41.049Z,20.03
2019-03-09T12:10:10.877Z,13.93
2019-03-09T12:12:39.275Z,15.47
2019-03-09T12:15:14.910Z,14.37
2019-03-09T12:17:43.309Z,10.43
2019-03-09T12:20:13.019Z,13.50
2019-03-09T12:22:41.422Z,12.97
2019-03-09T12:25:11.995Z,11.60
2019-03-09T12:27:40.425Z,11.07
2019-03-09T12:30:11.568Z,13.33
2019-03-09T12:32:40.048Z,11.60
2019-03-09T12:35:09.078Z,10.57
2019-03-09T12:37:37.350Z,12.63
2019-03-09T12:40:11.269Z,10.40
2019-03-09T12:42:39.813Z,12.30
2019-03-09T12:45:10.234Z,10.50
2019-03-09T12:47:38.843Z,10.13
2019-03-09T12:50:10.729Z,9.80
2019-03-09T12:52:39.205Z,11.63
2019-03-09T12:55:07.627Z,7.90
2019-03-09T12:57:36.056Z,11.00
2019-03-09T13:00:05.809Z,9.53
2019-03-09T13:02:34.199Z,7.87
2019-03-09T13:05:02.590Z,10.63
2019-03-09T13:07:31.022Z,8.77
2019-03-09T13:09:59.404Z,7.43
2019-03-09T13:12:27.929Z,7.30
2019-03-09T13:14:56.314Z,6.63
2019-03-09T13:17:24.770Z,7.87
2019-03-09T13:19:53.159Z,8.90
2019-03-09T13:22:21.585Z,6.20
2019-03-09T13:24:49.973Z,5.57
2019-03-09T13:27:18.366Z,6.40
2019-03-09T13:29:48.040Z,6.93
2019-03-09T13:32:16.439Z,4.73
2019-03-09T13:34:44.843Z,7.30
2019-03-09T13:37:13.236Z,7.60
2019-03-09T13:39:41.649Z,5.27
2019-03-09T13:42:10.038Z,7.83
2019-03-09T13:44:38.430Z,7.70
2019-03-09T13:47:06.931Z,5.60
2019-03-09T13:49:35.326Z,6.27
2019-03-09T13:52:03.711Z,5.30
2019-03-09T13:54:32.104Z,6.67
2019-03-09T13:57:00.499Z,7.70
2019-03-09T13:59:28.895Z,5.43
2019-03-09T14:01:57.286Z,8.23
2019-03-09T14:04:25.747Z,11.57
2019-03-09T14:06:54.137Z,8.33
2019-03-09T14:09:22.530Z,7.20
2019-03-09T14:11:50.920Z,7.20
2019-03-09T14:14:19.310Z,7.80
2019-03-09T14:16:47.721Z,8.70
2019-03-09T14:19:16.113Z,14.93
2019-03-09T14:21:44.506Z,12.80
2019-03-09T14:24:12.907Z,12.70
2019-03-09T14:26:41.369Z,12.07
2019-03-09T14:29:09.818Z,10.30
2019-03-09T14:31:38.214Z,12.13
2019-03-09T14:34:06.623Z,11.37
2019-03-09T14:36:35.020Z,11.83
2019-03-09T14:39:04.868Z,13.20
2019-03-09T14:41:33.255Z,12.57
2019-03-09T14:44:01.657Z,11.93
2019-03-09T14:46:30.121Z,12.13
2019-03-09T14:48:58.591Z,11.93
2019-03-09T14:51:27.002Z,11.23
2019-03-09T14:53:55.396Z,13.13
2019-03-09T14:56:23.887Z,10.97
2019-03-09T14:58:52.283Z,12.73
2019-03-09T15:01:20.671Z,11.83
2019-03-09T15:03:49.103Z,12.37
2019-03-09T15:06:21.993Z,12.67
2019-03-09T15:08:51.660Z,12.23
2019-03-09T15:11:20.048Z,10.30
2019-03-09T15:13:48.483Z,11.27
2019-03-09T15:16:16.876Z,10.90
2019-03-09T15:18:45.295Z,12.93
2019-03-09T15:21:13.694Z,14.30
2019-03-09T15:23:42.225Z,11.63
2019-03-09T15:26:10.659Z,11.33
2019-03-09T15:28:39.056Z,11.87
2019-03-09T15:31:07.459Z,12.93
2019-03-09T15:33:35.950Z,10.30
2019-03-09T15:36:04.436Z,10.23
2019-03-09T15:38:32.851Z,10.90
2019-03-09T15:41:01.361Z,10.27
2019-03-09T15:43:29.816Z,10.93
2019-03-09T15:45:58.212Z,11.93
2019-03-09T15:48:26.650Z,10.30
2019-03-09T15:50:55.022Z,7.70
2019-03-09T15:53:25.021Z,9.93
2019-03-09T15:55:53.411Z,9.53
2019-03-09T15:58:21.850Z,8.80
2019-03-09T16:00:50.320Z,10.83
2019-03-09T16:03:18.709Z,9.43
2019-03-09T16:05:47.099Z,9.10
2019-03-09T16:08:16.988Z,9.80
2019-03-09T16:10:45.415Z,9.60
2019-03-09T16:13:13.877Z,10.00
2019-03-09T16:15:42.274Z,9.73
2019-03-09T16:18:10.732Z,11.17
2019-03-09T16:20:39.132Z,10.20
2019-03-09T16:23:07.896Z,10.73
2019-03-09T16:25:36.317Z,10.43
2019-03-09T16:28:04.760Z,9.17
2019-03-09T16:30:33.192Z,12.50
2019-03-09T16:33:01.579Z,10.27
2019-03-09T16:35:30.034Z,8.80
2019-03-09T16:37:58.445Z,11.53
2019-03-09T16:40:26.886Z,11.37
2019-03-09T16:42:55.281Z,10.10
2019-03-09T16:45:23.719Z,10.20
2019-03-09T16:47:52.116Z,8.97
2019-03-09T16:50:20.526Z,8.80
2019-03-09T16:52:48.950Z,8.13
2019-03-09T16:55:17.467Z,8.03
2019-03-09T16:57:45.915Z,10.90
2019-03-09T17:00:19.167Z,8.80
2019-03-09T17:02:47.550Z,10.13
2019-03-09T17:05:15.986Z,7.67
2019-03-09T17:07:44.386Z,9.60
2019-03-09T17:10:14.235Z,7.97
2019-03-09T17:12:42.627Z,9.40
2019-03-09T17:15:17.257Z,8.07
2019-03-09T17:17:45.654Z,9.87
2019-03-09T17:20:17.942Z,8.53
2019-03-09T17:22:46.334Z,9.00
2019-03-09T17:25:15.364Z,8.43
2019-03-09T17:27:43.747Z,7.70
2019-03-09T17:30:19.978Z,8.77
2019-03-09T17:32:48.438Z,9.53
2019-03-09T17:35:16.841Z,10.80
2019-03-09T17:37:45.242Z,11.53
2019-03-09T17:40:15.158Z,15.70
2019-03-09T17:42:43.561Z,8.27
2019-03-09T17:45:14.751Z,8.50
2019-03-09T17:47:43.178Z,9.03
2019-03-09T17:50:13.292Z,8.67
2019-03-09T17:52:41.671Z,10.20
2019-03-09T17:55:11.144Z,10.13
2019-03-09T17:57:39.541Z,8.87
2019-03-09T18:00:26.658Z,7.87
2019-03-09T18:02:55.147Z,8.83
2019-03-09T18:05:23.575Z,9.80
2019-03-09T18:07:51.981Z,8.00
2019-03-09T18:10:40.198Z,9.73
2019-03-09T18:13:08.584Z,8.83
2019-03-09T18:15:37.044Z,9.90
2019-03-09T18:18:05.440Z,7.27
2019-03-09T18:20:34.016Z,8.50
2019-03-09T18:23:02.412Z,9.50
2019-03-09T18:25:30.873Z,7.60
2019-03-09T18:27:59.321Z,8.97
2019-03-09T18:30:27.839Z,7.73
2019-03-09T18:32:56.220Z,8.57
2019-03-09T18:35:24.634Z,8.67
2019-03-09T18:37:53.029Z,8.57
2019-03-09T18:40:21.438Z,7.77
2019-03-09T18:42:49.832Z,9.10
2019-03-09T18:45:20.923Z,8.83
2019-03-09T18:47:49.307Z,9.63
2019-03-09T18:50:17.702Z,8.10
2019-03-09T18:52:46.089Z,10.33
2019-03-09T18:55:14.548Z,8.10
2019-03-09T18:57:42.956Z,10.90
2019-03-09T19:00:18.502Z,9.47
2019-03-09T19:02:46.888Z,8.67
2019-03-09T19:05:15.304Z,8.33
2019-03-09T19:07:43.907Z,10.67
2019-03-09T19:10:14.544Z,7.87
2019-03-09T19:12:42.938Z,7.70
2019-03-09T19:15:15.123Z,9.97
2019-03-09T19:17:43.517Z,8.73
2019-03-09T19:20:17.103Z,11.83
2019-03-09T19:22:45.483Z,8.70
2019-03-09T19:25:14.540Z,9.33
2019-03-09T19:27:42.931Z,9.73
2019-03-09T19:30:17.390Z,13.77
2019-03-09T19:32:48.247Z,18.87
2019-03-09T19:35:16.685Z,18.70
2019-03-09T19:37:45.094Z,30.43
2019-03-09T19:40:17.873Z,27.77
2019-03-09T19:42:46.304Z,36.07
2019-03-09T19:45:18.114Z,35.70
2019-03-09T19:47:46.512Z,38.97
2019-03-09T19:50:17.207Z,43.80
2019-03-09T19:52:45.601Z,38.20
2019-03-09T19:55:14.081Z,44.23
2019-03-09T19:57:42.485Z,44.10
2019-03-09T20:00:16.906Z,49.40
2019-03-09T20:02:46.416Z,47.43
2019-03-09T20:05:14.860Z,45.30
2019-03-09T20:07:43.251Z,42.30
2019-03-09T20:10:20.032Z,44.40
2019-03-09T20:12:48.429Z,43.87
2019-03-09T20:15:18.960Z,38.60
2019-03-09T20:17:47.365Z,41.13
2019-03-09T20:20:17.807Z,42.17
2019-03-09T20:22:46.215Z,34.80
2019-03-09T20:25:14.617Z,40.20
2019-03-09T20:27:43.014Z,34.23
2019-03-09T20:30:19.535Z,30.20
2019-03-09T20:32:48.487Z,29.40
2019-03-09T20:35:16.911Z,29.13
2019-03-09T20:37:45.302Z,31.00
2019-03-09T20:40:17.936Z,34.23
2019-03-09T20:42:46.337Z,27.40
2019-03-09T20:45:16.884Z,23.43
2019-03-09T20:47:45.280Z,23.37
2019-03-09T20:50:17.696Z,28.20
2019-03-09T20:52:46.101Z,26.60
2019-03-09T20:55:14.504Z,20.60
2019-03-09T20:57:42.913Z,26.37
2019-03-09T21:00:16.323Z,20.50
2019-03-09T21:02:44.743Z,18.23
2019-03-09T21:05:13.150Z,20.50
2019-03-09T21:07:41.567Z,22.63
2019-03-09T21:10:12.755Z,19.47
2019-03-09T21:12:55.290Z,18.53
2019-03-09T21:15:23.680Z,17.90
2019-03-09T21:17:52.072Z,20.17
2019-03-09T21:20:20.491Z,17.37
2019-03-09T21:22:48.896Z,21.93
2019-03-09T21:25:17.290Z,13.93
2019-03-09T21:27:45.673Z,13.33
2019-03-09T21:30:14.546Z,14.83
2019-03-09T21:32:42.948Z,16.07
2019-03-09T21:35:11.347Z,14.40
2019-03-09T21:37:39.743Z,16.53
2019-03-09T21:40:08.304Z,13.80
2019-03-09T21:42:36.706Z,15.10
2019-03-09T21:45:07.867Z,16.70
2019-03-09T21:47:36.251Z,15.20
2019-03-09T21:50:07.748Z,13.50
2019-03-09T21:52:36.138Z,12.13
2019-03-09T21:55:06.174Z,13.57
2019-03-09T21:57:34.569Z,15.03
2019-03-09T22:00:03.152Z,11.03
2019-03-09T22:02:31.585Z,12.07
2019-03-09T22:05:00.317Z,14.87
2019-03-09T22:07:29.986Z,11.13
2019-03-09T22:09:58.378Z,11.93
2019-03-09T22:12:26.826Z,12.50
2019-03-09T22:14:55.210Z,13.97
2019-03-09T22:17:25.280Z,15.40
2019-03-09T22:19:53.675Z,13.37
2019-03-09T22:22:22.101Z,14.23
2019-03-09T22:24:50.765Z,10.93
2019-03-09T22:27:24.707Z,13.97
2019-03-09T22:29:53.310Z,15.97
2019-03-09T22:32:21.744Z,13.17
2019-03-09T22:34:50.124Z,13.90
2019-03-09T22:37:18.542Z,13.70
2019-03-09T22:39:46.935Z,13.43
2019-03-09T22:42:15.355Z,15.33
2019-03-09T22:44:43.770Z,15.53
2019-03-09T22:47:12.333Z,12.57
2019-03-09T22:49:40.766Z,14.67
2019-03-09T22:52:08.329Z,16.30
2019-03-09T22:54:36.726Z,15.07
2019-03-09T22:57:06.567Z,13.30
2019-03-09T22:59:36.674Z,13.63
2019-03-09T23:02:05.724Z,17.47
2019-03-09T23:04:34.112Z,14.70
2019-03-09T23:07:02.511Z,15.30
2019-03-09T23:09:30.929Z,12.77
2019-03-09T23:11:59.328Z,10.57
2019-03-09T23:14:27.719Z,11.90
2019-03-09T23:16:56.133Z,10.33
2019-03-09T23:19:24.526Z,10.80
2019-03-09T23:21:52.924Z,9.10
2019-03-09T23:24:21.339Z,12.03
2019-03-09T23:26:49.729Z,11.07
2019-03-09T23:29:18.193Z,12.70
2019-03-09T23:31:46.629Z,13.30
2019-03-09T23:34:15.018Z,11.87
2019-03-09T23:36:43.421Z,13.27
2019-03-09T23:39:11.809Z,10.10
2019-03-09T23:41:40.216Z,10.03
2019-03-09T23:44:08.607Z,12.70
2019-03-09T23:46:37.042Z,11.87
2019-03-09T23:49:05.497Z,11.27
2019-03-09T23:51:33.971Z,13.97
2019-03-09T23:54:02.371Z,10.10
2019-03-09T23:56:30.751Z,10.07
2019-03-09T23:58:59.152Z,12.67
